<?xml version="1.0" encoding="UTF-8" standalone="no" ?>
<gpx xmlns="http://www.topografix.com/GPX/1/1" xmlns:xsi="http://www.w3.org/2001/XMLSchema-instance" xsi:schemaLocation="http://www.topografix.com/GPX/1/1 http://www.topografix.com/GPX/1/1/gpx.xsd" version="1.1" creator="VisuGPX - https://www.visugpx.com">
  <metadata>
    <name>FINLANDE - RAQUETTES - IVALO - Sortie de nuit</name>
    <desc><![CDATA[Sortie en groupe et encadrée]]></desc>
  </metadata>
  <trk>
    <name><![CDATA[ACTIVE LOG 003]]></name>
    <trkseg>
      <trkpt lat="68.64954" lon="27.54239">
        <ele>117.418213</ele>
        <time>2014-03-16T18:42:06Z</time>
      </trkpt>
      <trkpt lat="68.6495" lon="27.54229">
        <ele>119.821411</ele>
        <time>2014-03-16T18:42:30Z</time>
      </trkpt>
      <trkpt lat="68.64955" lon="27.5422">
        <ele>114.53418</ele>
        <time>2014-03-16T18:42:41Z</time>
      </trkpt>
      <trkpt lat="68.64955" lon="27.5422">
        <ele>119.821411</ele>
        <time>2014-03-16T18:42:42Z</time>
      </trkpt>
      <trkpt lat="68.64958" lon="27.54219">
        <ele>117.898804</ele>
        <time>2014-03-16T18:42:47Z</time>
      </trkpt>
      <trkpt lat="68.64961" lon="27.54219">
        <ele>114.053589</ele>
        <time>2014-03-16T18:43:09Z</time>
      </trkpt>
      <trkpt lat="68.64961" lon="27.54219">
        <ele>116.9375</ele>
        <time>2014-03-16T18:43:11Z</time>
      </trkpt>
      <trkpt lat="68.64961" lon="27.5422">
        <ele>123.186157</ele>
        <time>2014-03-16T18:43:14Z</time>
      </trkpt>
      <trkpt lat="68.64961" lon="27.5422">
        <ele>117.898804</ele>
        <time>2014-03-16T18:43:15Z</time>
      </trkpt>
      <trkpt lat="68.64962" lon="27.54218">
        <ele>113.572998</ele>
        <time>2014-03-16T18:43:17Z</time>
      </trkpt>
      <trkpt lat="68.64961" lon="27.54217">
        <ele>114.053589</ele>
        <time>2014-03-16T18:43:18Z</time>
      </trkpt>
      <trkpt lat="68.64961" lon="27.54216">
        <ele>126.069946</ele>
        <time>2014-03-16T18:43:19Z</time>
      </trkpt>
      <trkpt lat="68.6496" lon="27.54216">
        <ele>119.821411</ele>
        <time>2014-03-16T18:43:20Z</time>
      </trkpt>
      <trkpt lat="68.6496" lon="27.54213">
        <ele>118.379395</ele>
        <time>2014-03-16T18:43:22Z</time>
      </trkpt>
      <trkpt lat="68.64959" lon="27.5421">
        <ele>119.34082</ele>
        <time>2014-03-16T18:43:39Z</time>
      </trkpt>
      <trkpt lat="68.64956" lon="27.54211">
        <ele>119.821411</ele>
        <time>2014-03-16T18:44:10Z</time>
      </trkpt>
      <trkpt lat="68.64957" lon="27.54205">
        <ele>119.34082</ele>
        <time>2014-03-16T18:44:50Z</time>
      </trkpt>
      <trkpt lat="68.64958" lon="27.54208">
        <ele>118.860107</ele>
        <time>2014-03-16T18:45:16Z</time>
      </trkpt>
      <trkpt lat="68.6496" lon="27.54206">
        <ele>118.379395</ele>
        <time>2014-03-16T18:45:40Z</time>
      </trkpt>
      <trkpt lat="68.64956" lon="27.54208">
        <ele>118.860107</ele>
        <time>2014-03-16T18:46:08Z</time>
      </trkpt>
      <trkpt lat="68.64958" lon="27.54204">
        <ele>119.821411</ele>
        <time>2014-03-16T18:46:46Z</time>
      </trkpt>
      <trkpt lat="68.64958" lon="27.54204">
        <ele>119.821411</ele>
        <time>2014-03-16T18:46:50Z</time>
      </trkpt>
      <trkpt lat="68.64959" lon="27.54205">
        <ele>121.26355</ele>
        <time>2014-03-16T18:47:15Z</time>
      </trkpt>
      <trkpt lat="68.64958" lon="27.54208">
        <ele>119.34082</ele>
        <time>2014-03-16T18:47:25Z</time>
      </trkpt>
      <trkpt lat="68.64957" lon="27.54206">
        <ele>120.782837</ele>
        <time>2014-03-16T18:47:27Z</time>
      </trkpt>
      <trkpt lat="68.6495" lon="27.54199">
        <ele>121.26355</ele>
        <time>2014-03-16T18:47:51Z</time>
      </trkpt>
      <trkpt lat="68.64938" lon="27.54173">
        <ele>121.26355</ele>
        <time>2014-03-16T18:48:08Z</time>
      </trkpt>
      <trkpt lat="68.64932" lon="27.54148">
        <ele>121.744141</ele>
        <time>2014-03-16T18:48:21Z</time>
      </trkpt>
      <trkpt lat="68.64927" lon="27.54121">
        <ele>118.860107</ele>
        <time>2014-03-16T18:48:35Z</time>
      </trkpt>
      <trkpt lat="68.64923" lon="27.54098">
        <ele>115.014893</ele>
        <time>2014-03-16T18:48:46Z</time>
      </trkpt>
      <trkpt lat="68.64923" lon="27.54096">
        <ele>116.9375</ele>
        <time>2014-03-16T18:48:47Z</time>
      </trkpt>
      <trkpt lat="68.64915" lon="27.54046">
        <ele>115.976196</ele>
        <time>2014-03-16T18:49:05Z</time>
      </trkpt>
      <trkpt lat="68.6492" lon="27.54001">
        <ele>115.495605</ele>
        <time>2014-03-16T18:49:23Z</time>
      </trkpt>
      <trkpt lat="68.64931" lon="27.53942">
        <ele>115.976196</ele>
        <time>2014-03-16T18:49:45Z</time>
      </trkpt>
      <trkpt lat="68.64934" lon="27.53881">
        <ele>116.9375</ele>
        <time>2014-03-16T18:50:05Z</time>
      </trkpt>
      <trkpt lat="68.64924" lon="27.53845">
        <ele>117.418213</ele>
        <time>2014-03-16T18:50:23Z</time>
      </trkpt>
      <trkpt lat="68.64916" lon="27.53821">
        <ele>117.418213</ele>
        <time>2014-03-16T18:50:39Z</time>
      </trkpt>
      <trkpt lat="68.64915" lon="27.53823">
        <ele>116.9375</ele>
        <time>2014-03-16T18:51:02Z</time>
      </trkpt>
      <trkpt lat="68.64915" lon="27.53824">
        <ele>116.9375</ele>
        <time>2014-03-16T18:51:41Z</time>
      </trkpt>
      <trkpt lat="68.64916" lon="27.53823">
        <ele>117.898804</ele>
        <time>2014-03-16T18:52:20Z</time>
      </trkpt>
      <trkpt lat="68.64915" lon="27.53822">
        <ele>118.379395</ele>
        <time>2014-03-16T18:52:51Z</time>
      </trkpt>
      <trkpt lat="68.64915" lon="27.53822">
        <ele>119.821411</ele>
        <time>2014-03-16T18:53:18Z</time>
      </trkpt>
      <trkpt lat="68.64909" lon="27.53807">
        <ele>118.860107</ele>
        <time>2014-03-16T18:53:32Z</time>
      </trkpt>
      <trkpt lat="68.64895" lon="27.53784">
        <ele>118.860107</ele>
        <time>2014-03-16T18:53:51Z</time>
      </trkpt>
      <trkpt lat="68.6489" lon="27.53776">
        <ele>119.821411</ele>
        <time>2014-03-16T18:53:57Z</time>
      </trkpt>
      <trkpt lat="68.64869" lon="27.53747">
        <ele>119.821411</ele>
        <time>2014-03-16T18:54:19Z</time>
      </trkpt>
      <trkpt lat="68.6485" lon="27.53739">
        <ele>119.34082</ele>
        <time>2014-03-16T18:54:37Z</time>
      </trkpt>
      <trkpt lat="68.64833" lon="27.5372">
        <ele>119.34082</ele>
        <time>2014-03-16T18:54:54Z</time>
      </trkpt>
      <trkpt lat="68.64815" lon="27.53701">
        <ele>119.821411</ele>
        <time>2014-03-16T18:55:13Z</time>
      </trkpt>
      <trkpt lat="68.64802" lon="27.5369">
        <ele>119.821411</ele>
        <time>2014-03-16T18:55:31Z</time>
      </trkpt>
      <trkpt lat="68.64795" lon="27.53685">
        <ele>118.860107</ele>
        <time>2014-03-16T18:55:50Z</time>
      </trkpt>
      <trkpt lat="68.6479" lon="27.53678">
        <ele>119.34082</ele>
        <time>2014-03-16T18:56:25Z</time>
      </trkpt>
      <trkpt lat="68.64776" lon="27.53653">
        <ele>118.860107</ele>
        <time>2014-03-16T18:56:44Z</time>
      </trkpt>
      <trkpt lat="68.64755" lon="27.53616">
        <ele>119.821411</ele>
        <time>2014-03-16T18:57:07Z</time>
      </trkpt>
      <trkpt lat="68.64738" lon="27.53587">
        <ele>119.821411</ele>
        <time>2014-03-16T18:57:26Z</time>
      </trkpt>
      <trkpt lat="68.6472" lon="27.53561">
        <ele>120.302124</ele>
        <time>2014-03-16T18:57:46Z</time>
      </trkpt>
      <trkpt lat="68.64705" lon="27.5354">
        <ele>119.34082</ele>
        <time>2014-03-16T18:58:02Z</time>
      </trkpt>
      <trkpt lat="68.64686" lon="27.53505">
        <ele>119.34082</ele>
        <time>2014-03-16T18:58:23Z</time>
      </trkpt>
      <trkpt lat="68.64682" lon="27.53494">
        <ele>119.821411</ele>
        <time>2014-03-16T18:58:41Z</time>
      </trkpt>
      <trkpt lat="68.64682" lon="27.53495">
        <ele>119.34082</ele>
        <time>2014-03-16T18:59:10Z</time>
      </trkpt>
      <trkpt lat="68.64681" lon="27.53496">
        <ele>118.379395</ele>
        <time>2014-03-16T18:59:37Z</time>
      </trkpt>
      <trkpt lat="68.64681" lon="27.53494">
        <ele>118.860107</ele>
        <time>2014-03-16T19:00:12Z</time>
      </trkpt>
      <trkpt lat="68.64681" lon="27.53494">
        <ele>118.860107</ele>
        <time>2014-03-16T19:00:37Z</time>
      </trkpt>
      <trkpt lat="68.6468" lon="27.53493">
        <ele>119.34082</ele>
        <time>2014-03-16T19:01:16Z</time>
      </trkpt>
      <trkpt lat="68.6468" lon="27.53493">
        <ele>118.860107</ele>
        <time>2014-03-16T19:01:53Z</time>
      </trkpt>
      <trkpt lat="68.64681" lon="27.53493">
        <ele>119.821411</ele>
        <time>2014-03-16T19:02:28Z</time>
      </trkpt>
      <trkpt lat="68.64681" lon="27.53494">
        <ele>120.302124</ele>
        <time>2014-03-16T19:02:50Z</time>
      </trkpt>
      <trkpt lat="68.64681" lon="27.53494">
        <ele>118.860107</ele>
        <time>2014-03-16T19:03:00Z</time>
      </trkpt>
      <trkpt lat="68.64681" lon="27.53494">
        <ele>120.302124</ele>
        <time>2014-03-16T19:03:02Z</time>
      </trkpt>
      <trkpt lat="68.6468" lon="27.53493">
        <ele>117.898804</ele>
        <time>2014-03-16T19:03:34Z</time>
      </trkpt>
      <trkpt lat="68.6468" lon="27.53493">
        <ele>121.26355</ele>
        <time>2014-03-16T19:03:35Z</time>
      </trkpt>
      <trkpt lat="68.6468" lon="27.53493">
        <ele>120.782837</ele>
        <time>2014-03-16T19:03:36Z</time>
      </trkpt>
      <trkpt lat="68.64673" lon="27.53472">
        <ele>119.34082</ele>
        <time>2014-03-16T19:03:49Z</time>
      </trkpt>
      <trkpt lat="68.64663" lon="27.53444">
        <ele>119.821411</ele>
        <time>2014-03-16T19:04:05Z</time>
      </trkpt>
      <trkpt lat="68.64649" lon="27.53398">
        <ele>119.821411</ele>
        <time>2014-03-16T19:04:27Z</time>
      </trkpt>
      <trkpt lat="68.64647" lon="27.53358">
        <ele>120.302124</ele>
        <time>2014-03-16T19:04:45Z</time>
      </trkpt>
      <trkpt lat="68.64645" lon="27.53329">
        <ele>119.821411</ele>
        <time>2014-03-16T19:05:03Z</time>
      </trkpt>
      <trkpt lat="68.64645" lon="27.53321">
        <ele>118.860107</ele>
        <time>2014-03-16T19:05:25Z</time>
      </trkpt>
      <trkpt lat="68.64646" lon="27.5332">
        <ele>121.744141</ele>
        <time>2014-03-16T19:05:35Z</time>
      </trkpt>
      <trkpt lat="68.64647" lon="27.53309">
        <ele>121.744141</ele>
        <time>2014-03-16T19:05:54Z</time>
      </trkpt>
      <trkpt lat="68.64647" lon="27.53302">
        <ele>121.744141</ele>
        <time>2014-03-16T19:06:10Z</time>
      </trkpt>
      <trkpt lat="68.64649" lon="27.53294">
        <ele>121.26355</ele>
        <time>2014-03-16T19:06:28Z</time>
      </trkpt>
      <trkpt lat="68.64647" lon="27.53269">
        <ele>121.744141</ele>
        <time>2014-03-16T19:06:45Z</time>
      </trkpt>
      <trkpt lat="68.64644" lon="27.53235">
        <ele>121.26355</ele>
        <time>2014-03-16T19:07:00Z</time>
      </trkpt>
      <trkpt lat="68.64641" lon="27.53213">
        <ele>122.705444</ele>
        <time>2014-03-16T19:07:16Z</time>
      </trkpt>
      <trkpt lat="68.64639" lon="27.53186">
        <ele>121.744141</ele>
        <time>2014-03-16T19:07:30Z</time>
      </trkpt>
      <trkpt lat="68.64638" lon="27.53159">
        <ele>122.705444</ele>
        <time>2014-03-16T19:07:44Z</time>
      </trkpt>
      <trkpt lat="68.64637" lon="27.53122">
        <ele>123.186157</ele>
        <time>2014-03-16T19:08:02Z</time>
      </trkpt>
      <trkpt lat="68.64636" lon="27.53082">
        <ele>122.705444</ele>
        <time>2014-03-16T19:08:20Z</time>
      </trkpt>
      <trkpt lat="68.64636" lon="27.53044">
        <ele>122.705444</ele>
        <time>2014-03-16T19:08:37Z</time>
      </trkpt>
      <trkpt lat="68.64638" lon="27.53012">
        <ele>123.186157</ele>
        <time>2014-03-16T19:08:54Z</time>
      </trkpt>
      <trkpt lat="68.64645" lon="27.52984">
        <ele>123.666748</ele>
        <time>2014-03-16T19:09:12Z</time>
      </trkpt>
      <trkpt lat="68.64653" lon="27.52972">
        <ele>123.186157</ele>
        <time>2014-03-16T19:09:29Z</time>
      </trkpt>
      <trkpt lat="68.64657" lon="27.52954">
        <ele>123.186157</ele>
        <time>2014-03-16T19:09:45Z</time>
      </trkpt>
      <trkpt lat="68.64659" lon="27.52932">
        <ele>122.705444</ele>
        <time>2014-03-16T19:10:03Z</time>
      </trkpt>
      <trkpt lat="68.6466" lon="27.5292">
        <ele>123.666748</ele>
        <time>2014-03-16T19:10:24Z</time>
      </trkpt>
      <trkpt lat="68.64662" lon="27.52912">
        <ele>123.666748</ele>
        <time>2014-03-16T19:10:42Z</time>
      </trkpt>
      <trkpt lat="68.64665" lon="27.52904">
        <ele>122.705444</ele>
        <time>2014-03-16T19:11:00Z</time>
      </trkpt>
      <trkpt lat="68.64664" lon="27.52888">
        <ele>124.147339</ele>
        <time>2014-03-16T19:11:20Z</time>
      </trkpt>
      <trkpt lat="68.64664" lon="27.5287">
        <ele>124.147339</ele>
        <time>2014-03-16T19:11:41Z</time>
      </trkpt>
      <trkpt lat="68.64665" lon="27.52848">
        <ele>124.147339</ele>
        <time>2014-03-16T19:11:54Z</time>
      </trkpt>
      <trkpt lat="68.64665" lon="27.52829">
        <ele>122.705444</ele>
        <time>2014-03-16T19:12:14Z</time>
      </trkpt>
      <trkpt lat="68.64668" lon="27.52826">
        <ele>123.666748</ele>
        <time>2014-03-16T19:12:34Z</time>
      </trkpt>
      <trkpt lat="68.64669" lon="27.5282">
        <ele>122.705444</ele>
        <time>2014-03-16T19:12:56Z</time>
      </trkpt>
      <trkpt lat="68.64672" lon="27.52811">
        <ele>122.705444</ele>
        <time>2014-03-16T19:13:15Z</time>
      </trkpt>
      <trkpt lat="68.64673" lon="27.52804">
        <ele>122.224731</ele>
        <time>2014-03-16T19:13:33Z</time>
      </trkpt>
      <trkpt lat="68.64672" lon="27.52797">
        <ele>123.186157</ele>
        <time>2014-03-16T19:13:59Z</time>
      </trkpt>
      <trkpt lat="68.64671" lon="27.52786">
        <ele>123.666748</ele>
        <time>2014-03-16T19:14:20Z</time>
      </trkpt>
      <trkpt lat="68.64672" lon="27.52772">
        <ele>122.705444</ele>
        <time>2014-03-16T19:14:40Z</time>
      </trkpt>
      <trkpt lat="68.64669" lon="27.52763">
        <ele>123.666748</ele>
        <time>2014-03-16T19:15:04Z</time>
      </trkpt>
      <trkpt lat="68.64667" lon="27.52754">
        <ele>120.302124</ele>
        <time>2014-03-16T19:15:20Z</time>
      </trkpt>
      <trkpt lat="68.64667" lon="27.52753">
        <ele>124.147339</ele>
        <time>2014-03-16T19:15:21Z</time>
      </trkpt>
      <trkpt lat="68.64667" lon="27.52743">
        <ele>123.186157</ele>
        <time>2014-03-16T19:15:38Z</time>
      </trkpt>
      <trkpt lat="68.64667" lon="27.52733">
        <ele>118.860107</ele>
        <time>2014-03-16T19:15:54Z</time>
      </trkpt>
      <trkpt lat="68.64667" lon="27.52732">
        <ele>124.147339</ele>
        <time>2014-03-16T19:15:55Z</time>
      </trkpt>
      <trkpt lat="68.64667" lon="27.52731">
        <ele>123.186157</ele>
        <time>2014-03-16T19:15:56Z</time>
      </trkpt>
      <trkpt lat="68.64665" lon="27.52723">
        <ele>121.26355</ele>
        <time>2014-03-16T19:16:11Z</time>
      </trkpt>
      <trkpt lat="68.64665" lon="27.52723">
        <ele>123.186157</ele>
        <time>2014-03-16T19:16:14Z</time>
      </trkpt>
      <trkpt lat="68.64662" lon="27.52719">
        <ele>119.821411</ele>
        <time>2014-03-16T19:16:31Z</time>
      </trkpt>
      <trkpt lat="68.64662" lon="27.52718">
        <ele>124.628052</ele>
        <time>2014-03-16T19:16:32Z</time>
      </trkpt>
      <trkpt lat="68.64659" lon="27.52708">
        <ele>124.147339</ele>
        <time>2014-03-16T19:16:48Z</time>
      </trkpt>
      <trkpt lat="68.64658" lon="27.52694">
        <ele>124.147339</ele>
        <time>2014-03-16T19:17:07Z</time>
      </trkpt>
      <trkpt lat="68.64659" lon="27.52663">
        <ele>123.186157</ele>
        <time>2014-03-16T19:17:25Z</time>
      </trkpt>
      <trkpt lat="68.64657" lon="27.52635">
        <ele>123.186157</ele>
        <time>2014-03-16T19:17:41Z</time>
      </trkpt>
      <trkpt lat="68.64659" lon="27.52603">
        <ele>122.705444</ele>
        <time>2014-03-16T19:17:59Z</time>
      </trkpt>
      <trkpt lat="68.64664" lon="27.52569">
        <ele>123.186157</ele>
        <time>2014-03-16T19:18:19Z</time>
      </trkpt>
      <trkpt lat="68.64666" lon="27.52554">
        <ele>122.705444</ele>
        <time>2014-03-16T19:18:39Z</time>
      </trkpt>
      <trkpt lat="68.64667" lon="27.52546">
        <ele>124.147339</ele>
        <time>2014-03-16T19:18:48Z</time>
      </trkpt>
      <trkpt lat="68.64667" lon="27.52525">
        <ele>123.186157</ele>
        <time>2014-03-16T19:19:04Z</time>
      </trkpt>
      <trkpt lat="68.64668" lon="27.52517">
        <ele>117.418213</ele>
        <time>2014-03-16T19:19:11Z</time>
      </trkpt>
      <trkpt lat="68.64668" lon="27.52517">
        <ele>120.782837</ele>
        <time>2014-03-16T19:19:12Z</time>
      </trkpt>
      <trkpt lat="68.64668" lon="27.52517">
        <ele>125.108765</ele>
        <time>2014-03-16T19:19:13Z</time>
      </trkpt>
      <trkpt lat="68.64668" lon="27.52517">
        <ele>125.108765</ele>
        <time>2014-03-16T19:19:14Z</time>
      </trkpt>
      <trkpt lat="68.64665" lon="27.52494">
        <ele>125.108765</ele>
        <time>2014-03-16T19:19:29Z</time>
      </trkpt>
      <trkpt lat="68.64661" lon="27.52488">
        <ele>125.108765</ele>
        <time>2014-03-16T19:19:44Z</time>
      </trkpt>
      <trkpt lat="68.64657" lon="27.52473">
        <ele>125.108765</ele>
        <time>2014-03-16T19:20:02Z</time>
      </trkpt>
      <trkpt lat="68.64654" lon="27.52438">
        <ele>124.628052</ele>
        <time>2014-03-16T19:20:18Z</time>
      </trkpt>
      <trkpt lat="68.64648" lon="27.52405">
        <ele>124.147339</ele>
        <time>2014-03-16T19:20:34Z</time>
      </trkpt>
      <trkpt lat="68.64641" lon="27.52369">
        <ele>124.147339</ele>
        <time>2014-03-16T19:20:52Z</time>
      </trkpt>
      <trkpt lat="68.64642" lon="27.52341">
        <ele>124.147339</ele>
        <time>2014-03-16T19:21:09Z</time>
      </trkpt>
      <trkpt lat="68.64645" lon="27.52313">
        <ele>124.147339</ele>
        <time>2014-03-16T19:21:28Z</time>
      </trkpt>
      <trkpt lat="68.64646" lon="27.52306">
        <ele>124.628052</ele>
        <time>2014-03-16T19:21:51Z</time>
      </trkpt>
      <trkpt lat="68.64646" lon="27.52307">
        <ele>124.147339</ele>
        <time>2014-03-16T19:22:16Z</time>
      </trkpt>
      <trkpt lat="68.64649" lon="27.52308">
        <ele>125.108765</ele>
        <time>2014-03-16T19:22:48Z</time>
      </trkpt>
      <trkpt lat="68.64648" lon="27.52308">
        <ele>124.628052</ele>
        <time>2014-03-16T19:22:54Z</time>
      </trkpt>
      <trkpt lat="68.64648" lon="27.52308">
        <ele>124.628052</ele>
        <time>2014-03-16T19:23:09Z</time>
      </trkpt>
      <trkpt lat="68.64649" lon="27.52307">
        <ele>123.666748</ele>
        <time>2014-03-16T19:23:58Z</time>
      </trkpt>
      <trkpt lat="68.64649" lon="27.52306">
        <ele>125.108765</ele>
        <time>2014-03-16T19:24:00Z</time>
      </trkpt>
      <trkpt lat="68.64649" lon="27.52307">
        <ele>124.628052</ele>
        <time>2014-03-16T19:24:30Z</time>
      </trkpt>
      <trkpt lat="68.64649" lon="27.52303">
        <ele>124.628052</ele>
        <time>2014-03-16T19:24:59Z</time>
      </trkpt>
      <trkpt lat="68.64648" lon="27.52302">
        <ele>123.666748</ele>
        <time>2014-03-16T19:25:06Z</time>
      </trkpt>
      <trkpt lat="68.64648" lon="27.52301">
        <ele>124.628052</ele>
        <time>2014-03-16T19:25:08Z</time>
      </trkpt>
      <trkpt lat="68.64648" lon="27.52301">
        <ele>126.069946</ele>
        <time>2014-03-16T19:25:13Z</time>
      </trkpt>
      <trkpt lat="68.6465" lon="27.52293">
        <ele>125.108765</ele>
        <time>2014-03-16T19:25:28Z</time>
      </trkpt>
      <trkpt lat="68.64651" lon="27.52269">
        <ele>125.589355</ele>
        <time>2014-03-16T19:25:45Z</time>
      </trkpt>
      <trkpt lat="68.6465" lon="27.52248">
        <ele>125.589355</ele>
        <time>2014-03-16T19:26:00Z</time>
      </trkpt>
      <trkpt lat="68.64651" lon="27.52245">
        <ele>121.744141</ele>
        <time>2014-03-16T19:26:12Z</time>
      </trkpt>
      <trkpt lat="68.64651" lon="27.52245">
        <ele>121.744141</ele>
        <time>2014-03-16T19:26:13Z</time>
      </trkpt>
      <trkpt lat="68.64651" lon="27.52245">
        <ele>127.031372</ele>
        <time>2014-03-16T19:26:14Z</time>
      </trkpt>
      <trkpt lat="68.64651" lon="27.52245">
        <ele>126.069946</ele>
        <time>2014-03-16T19:26:15Z</time>
      </trkpt>
      <trkpt lat="68.64652" lon="27.5222">
        <ele>125.108765</ele>
        <time>2014-03-16T19:26:32Z</time>
      </trkpt>
      <trkpt lat="68.64647" lon="27.52186">
        <ele>125.108765</ele>
        <time>2014-03-16T19:26:53Z</time>
      </trkpt>
      <trkpt lat="68.64646" lon="27.52168">
        <ele>126.069946</ele>
        <time>2014-03-16T19:27:10Z</time>
      </trkpt>
      <trkpt lat="68.64645" lon="27.52162">
        <ele>126.550659</ele>
        <time>2014-03-16T19:27:18Z</time>
      </trkpt>
      <trkpt lat="68.64644" lon="27.52131">
        <ele>124.628052</ele>
        <time>2014-03-16T19:27:35Z</time>
      </trkpt>
      <trkpt lat="68.64642" lon="27.52101">
        <ele>125.108765</ele>
        <time>2014-03-16T19:27:49Z</time>
      </trkpt>
      <trkpt lat="68.64642" lon="27.52095">
        <ele>125.108765</ele>
        <time>2014-03-16T19:27:51Z</time>
      </trkpt>
      <trkpt lat="68.64642" lon="27.5204">
        <ele>125.589355</ele>
        <time>2014-03-16T19:28:10Z</time>
      </trkpt>
      <trkpt lat="68.64642" lon="27.51989">
        <ele>125.589355</ele>
        <time>2014-03-16T19:28:28Z</time>
      </trkpt>
      <trkpt lat="68.64638" lon="27.51936">
        <ele>124.628052</ele>
        <time>2014-03-16T19:28:51Z</time>
      </trkpt>
      <trkpt lat="68.64638" lon="27.51896">
        <ele>124.628052</ele>
        <time>2014-03-16T19:29:08Z</time>
      </trkpt>
      <trkpt lat="68.64637" lon="27.5187">
        <ele>124.147339</ele>
        <time>2014-03-16T19:29:28Z</time>
      </trkpt>
      <trkpt lat="68.64644" lon="27.51857">
        <ele>123.666748</ele>
        <time>2014-03-16T19:29:46Z</time>
      </trkpt>
      <trkpt lat="68.6465" lon="27.51864">
        <ele>122.224731</ele>
        <time>2014-03-16T19:30:02Z</time>
      </trkpt>
      <trkpt lat="68.64661" lon="27.51869">
        <ele>122.705444</ele>
        <time>2014-03-16T19:30:18Z</time>
      </trkpt>
      <trkpt lat="68.64675" lon="27.51879">
        <ele>122.224731</ele>
        <time>2014-03-16T19:30:38Z</time>
      </trkpt>
      <trkpt lat="68.6469" lon="27.51887">
        <ele>121.744141</ele>
        <time>2014-03-16T19:30:58Z</time>
      </trkpt>
      <trkpt lat="68.64708" lon="27.51908">
        <ele>121.744141</ele>
        <time>2014-03-16T19:31:19Z</time>
      </trkpt>
      <trkpt lat="68.6472" lon="27.51923">
        <ele>121.744141</ele>
        <time>2014-03-16T19:31:37Z</time>
      </trkpt>
      <trkpt lat="68.64724" lon="27.51931">
        <ele>121.744141</ele>
        <time>2014-03-16T19:31:49Z</time>
      </trkpt>
      <trkpt lat="68.64725" lon="27.51932">
        <ele>118.379395</ele>
        <time>2014-03-16T19:32:04Z</time>
      </trkpt>
      <trkpt lat="68.64725" lon="27.51933">
        <ele>121.26355</ele>
        <time>2014-03-16T19:32:07Z</time>
      </trkpt>
      <trkpt lat="68.64725" lon="27.51933">
        <ele>121.744141</ele>
        <time>2014-03-16T19:32:11Z</time>
      </trkpt>
      <trkpt lat="68.64725" lon="27.51933">
        <ele>117.418213</ele>
        <time>2014-03-16T19:32:13Z</time>
      </trkpt>
      <trkpt lat="68.64725" lon="27.51933">
        <ele>119.34082</ele>
        <time>2014-03-16T19:32:14Z</time>
      </trkpt>
      <trkpt lat="68.64726" lon="27.51933">
        <ele>123.186157</ele>
        <time>2014-03-16T19:32:16Z</time>
      </trkpt>
      <trkpt lat="68.64726" lon="27.51933">
        <ele>119.34082</ele>
        <time>2014-03-16T19:32:18Z</time>
      </trkpt>
      <trkpt lat="68.64726" lon="27.51933">
        <ele>121.744141</ele>
        <time>2014-03-16T19:32:21Z</time>
      </trkpt>
      <trkpt lat="68.64726" lon="27.51933">
        <ele>119.821411</ele>
        <time>2014-03-16T19:32:24Z</time>
      </trkpt>
      <trkpt lat="68.64728" lon="27.51936">
        <ele>122.224731</ele>
        <time>2014-03-16T19:32:44Z</time>
      </trkpt>
      <trkpt lat="68.64728" lon="27.51936">
        <ele>118.860107</ele>
        <time>2014-03-16T19:32:47Z</time>
      </trkpt>
      <trkpt lat="68.64728" lon="27.51935">
        <ele>119.821411</ele>
        <time>2014-03-16T19:32:48Z</time>
      </trkpt>
      <trkpt lat="68.64728" lon="27.51935">
        <ele>120.782837</ele>
        <time>2014-03-16T19:32:50Z</time>
      </trkpt>
      <trkpt lat="68.64728" lon="27.51934">
        <ele>116.9375</ele>
        <time>2014-03-16T19:32:53Z</time>
      </trkpt>
      <trkpt lat="68.64728" lon="27.51934">
        <ele>122.224731</ele>
        <time>2014-03-16T19:32:54Z</time>
      </trkpt>
      <trkpt lat="68.64728" lon="27.51934">
        <ele>121.26355</ele>
        <time>2014-03-16T19:32:55Z</time>
      </trkpt>
      <trkpt lat="68.64728" lon="27.51931">
        <ele>122.224731</ele>
        <time>2014-03-16T19:33:03Z</time>
      </trkpt>
      <trkpt lat="68.64729" lon="27.51927">
        <ele>117.898804</ele>
        <time>2014-03-16T19:33:10Z</time>
      </trkpt>
      <trkpt lat="68.64729" lon="27.51927">
        <ele>119.34082</ele>
        <time>2014-03-16T19:33:11Z</time>
      </trkpt>
      <trkpt lat="68.64729" lon="27.51926">
        <ele>120.302124</ele>
        <time>2014-03-16T19:33:19Z</time>
      </trkpt>
      <trkpt lat="68.6473" lon="27.5192">
        <ele>121.26355</ele>
        <time>2014-03-16T19:33:32Z</time>
      </trkpt>
      <trkpt lat="68.6473" lon="27.51928">
        <ele>120.782837</ele>
        <time>2014-03-16T19:33:55Z</time>
      </trkpt>
      <trkpt lat="68.64731" lon="27.51927">
        <ele>119.821411</ele>
        <time>2014-03-16T19:34:06Z</time>
      </trkpt>
      <trkpt lat="68.6473" lon="27.51927">
        <ele>120.302124</ele>
        <time>2014-03-16T19:34:37Z</time>
      </trkpt>
      <trkpt lat="68.6473" lon="27.51927">
        <ele>121.26355</ele>
        <time>2014-03-16T19:34:39Z</time>
      </trkpt>
      <trkpt lat="68.6473" lon="27.51929">
        <ele>120.782837</ele>
        <time>2014-03-16T19:34:49Z</time>
      </trkpt>
      <trkpt lat="68.6473" lon="27.51926">
        <ele>121.744141</ele>
        <time>2014-03-16T19:35:15Z</time>
      </trkpt>
      <trkpt lat="68.6473" lon="27.51926">
        <ele>118.379395</ele>
        <time>2014-03-16T19:35:19Z</time>
      </trkpt>
      <trkpt lat="68.64729" lon="27.51926">
        <ele>121.26355</ele>
        <time>2014-03-16T19:35:22Z</time>
      </trkpt>
      <trkpt lat="68.64729" lon="27.51927">
        <ele>122.705444</ele>
        <time>2014-03-16T19:35:31Z</time>
      </trkpt>
      <trkpt lat="68.64729" lon="27.51926">
        <ele>120.302124</ele>
        <time>2014-03-16T19:35:33Z</time>
      </trkpt>
      <trkpt lat="68.64728" lon="27.51924">
        <ele>121.744141</ele>
        <time>2014-03-16T19:36:01Z</time>
      </trkpt>
      <trkpt lat="68.64728" lon="27.51925">
        <ele>120.302124</ele>
        <time>2014-03-16T19:36:12Z</time>
      </trkpt>
      <trkpt lat="68.64727" lon="27.51927">
        <ele>122.224731</ele>
        <time>2014-03-16T19:36:25Z</time>
      </trkpt>
      <trkpt lat="68.64727" lon="27.5193">
        <ele>119.821411</ele>
        <time>2014-03-16T19:36:39Z</time>
      </trkpt>
      <trkpt lat="68.64727" lon="27.5193">
        <ele>123.186157</ele>
        <time>2014-03-16T19:36:40Z</time>
      </trkpt>
      <trkpt lat="68.64727" lon="27.5193">
        <ele>120.782837</ele>
        <time>2014-03-16T19:36:41Z</time>
      </trkpt>
      <trkpt lat="68.64728" lon="27.51931">
        <ele>121.26355</ele>
        <time>2014-03-16T19:36:46Z</time>
      </trkpt>
      <trkpt lat="68.64728" lon="27.51932">
        <ele>121.744141</ele>
        <time>2014-03-16T19:36:55Z</time>
      </trkpt>
      <trkpt lat="68.64728" lon="27.51935">
        <ele>118.860107</ele>
        <time>2014-03-16T19:37:25Z</time>
      </trkpt>
      <trkpt lat="68.64728" lon="27.51936">
        <ele>122.224731</ele>
        <time>2014-03-16T19:37:26Z</time>
      </trkpt>
      <trkpt lat="68.64728" lon="27.51936">
        <ele>122.224731</ele>
        <time>2014-03-16T19:37:27Z</time>
      </trkpt>
      <trkpt lat="68.64728" lon="27.51936">
        <ele>118.860107</ele>
        <time>2014-03-16T19:37:28Z</time>
      </trkpt>
      <trkpt lat="68.64728" lon="27.51936">
        <ele>120.302124</ele>
        <time>2014-03-16T19:37:29Z</time>
      </trkpt>
      <trkpt lat="68.64728" lon="27.51937">
        <ele>118.379395</ele>
        <time>2014-03-16T19:37:32Z</time>
      </trkpt>
      <trkpt lat="68.64728" lon="27.51937">
        <ele>124.147339</ele>
        <time>2014-03-16T19:37:33Z</time>
      </trkpt>
      <trkpt lat="68.64728" lon="27.51938">
        <ele>119.821411</ele>
        <time>2014-03-16T19:37:37Z</time>
      </trkpt>
      <trkpt lat="68.64728" lon="27.51938">
        <ele>115.976196</ele>
        <time>2014-03-16T19:37:38Z</time>
      </trkpt>
      <trkpt lat="68.64727" lon="27.51938">
        <ele>119.34082</ele>
        <time>2014-03-16T19:37:39Z</time>
      </trkpt>
      <trkpt lat="68.64727" lon="27.51938">
        <ele>120.302124</ele>
        <time>2014-03-16T19:37:41Z</time>
      </trkpt>
      <trkpt lat="68.64727" lon="27.51938">
        <ele>126.069946</ele>
        <time>2014-03-16T19:37:43Z</time>
      </trkpt>
      <trkpt lat="68.64727" lon="27.51938">
        <ele>123.186157</ele>
        <time>2014-03-16T19:37:44Z</time>
      </trkpt>
      <trkpt lat="68.64727" lon="27.51938">
        <ele>120.302124</ele>
        <time>2014-03-16T19:37:45Z</time>
      </trkpt>
      <trkpt lat="68.64727" lon="27.51938">
        <ele>122.224731</ele>
        <time>2014-03-16T19:37:46Z</time>
      </trkpt>
      <trkpt lat="68.64727" lon="27.51937">
        <ele>122.705444</ele>
        <time>2014-03-16T19:37:48Z</time>
      </trkpt>
      <trkpt lat="68.64727" lon="27.51937">
        <ele>121.744141</ele>
        <time>2014-03-16T19:37:51Z</time>
      </trkpt>
      <trkpt lat="68.64727" lon="27.51936">
        <ele>119.821411</ele>
        <time>2014-03-16T19:38:04Z</time>
      </trkpt>
      <trkpt lat="68.64727" lon="27.51936">
        <ele>121.26355</ele>
        <time>2014-03-16T19:38:06Z</time>
      </trkpt>
      <trkpt lat="68.64727" lon="27.51936">
        <ele>126.550659</ele>
        <time>2014-03-16T19:38:14Z</time>
      </trkpt>
      <trkpt lat="68.64727" lon="27.51936">
        <ele>122.224731</ele>
        <time>2014-03-16T19:38:16Z</time>
      </trkpt>
      <trkpt lat="68.64727" lon="27.51936">
        <ele>122.224731</ele>
        <time>2014-03-16T19:38:17Z</time>
      </trkpt>
      <trkpt lat="68.64727" lon="27.51935">
        <ele>116.456787</ele>
        <time>2014-03-16T19:38:22Z</time>
      </trkpt>
      <trkpt lat="68.64727" lon="27.51934">
        <ele>122.224731</ele>
        <time>2014-03-16T19:38:24Z</time>
      </trkpt>
      <trkpt lat="68.64727" lon="27.51934">
        <ele>121.744141</ele>
        <time>2014-03-16T19:38:25Z</time>
      </trkpt>
      <trkpt lat="68.64727" lon="27.51932">
        <ele>125.589355</ele>
        <time>2014-03-16T19:38:30Z</time>
      </trkpt>
      <trkpt lat="68.64727" lon="27.51932">
        <ele>122.224731</ele>
        <time>2014-03-16T19:38:31Z</time>
      </trkpt>
      <trkpt lat="68.64727" lon="27.51932">
        <ele>122.224731</ele>
        <time>2014-03-16T19:38:35Z</time>
      </trkpt>
      <trkpt lat="68.64728" lon="27.51931">
        <ele>121.26355</ele>
        <time>2014-03-16T19:38:40Z</time>
      </trkpt>
      <trkpt lat="68.64728" lon="27.51931">
        <ele>120.302124</ele>
        <time>2014-03-16T19:38:48Z</time>
      </trkpt>
      <trkpt lat="68.64728" lon="27.5193">
        <ele>126.069946</ele>
        <time>2014-03-16T19:38:53Z</time>
      </trkpt>
      <trkpt lat="68.64728" lon="27.5193">
        <ele>126.069946</ele>
        <time>2014-03-16T19:38:54Z</time>
      </trkpt>
      <trkpt lat="68.64728" lon="27.5193">
        <ele>117.418213</ele>
        <time>2014-03-16T19:38:55Z</time>
      </trkpt>
      <trkpt lat="68.64728" lon="27.5193">
        <ele>119.821411</ele>
        <time>2014-03-16T19:38:56Z</time>
      </trkpt>
      <trkpt lat="68.64728" lon="27.51929">
        <ele>123.666748</ele>
        <time>2014-03-16T19:39:00Z</time>
      </trkpt>
      <trkpt lat="68.64728" lon="27.51929">
        <ele>124.147339</ele>
        <time>2014-03-16T19:39:04Z</time>
      </trkpt>
      <trkpt lat="68.64728" lon="27.51929">
        <ele>120.302124</ele>
        <time>2014-03-16T19:39:06Z</time>
      </trkpt>
      <trkpt lat="68.64728" lon="27.5193">
        <ele>125.108765</ele>
        <time>2014-03-16T19:39:14Z</time>
      </trkpt>
      <trkpt lat="68.64728" lon="27.5193">
        <ele>121.26355</ele>
        <time>2014-03-16T19:39:15Z</time>
      </trkpt>
      <trkpt lat="68.64733" lon="27.51939">
        <ele>121.26355</ele>
        <time>2014-03-16T19:39:35Z</time>
      </trkpt>
      <trkpt lat="68.64734" lon="27.5194">
        <ele>122.224731</ele>
        <time>2014-03-16T19:39:37Z</time>
      </trkpt>
      <trkpt lat="68.64735" lon="27.51965">
        <ele>122.224731</ele>
        <time>2014-03-16T19:39:57Z</time>
      </trkpt>
      <trkpt lat="68.64735" lon="27.51966">
        <ele>120.302124</ele>
        <time>2014-03-16T19:39:59Z</time>
      </trkpt>
      <trkpt lat="68.64736" lon="27.51966">
        <ele>122.224731</ele>
        <time>2014-03-16T19:40:03Z</time>
      </trkpt>
      <trkpt lat="68.64734" lon="27.5198">
        <ele>123.666748</ele>
        <time>2014-03-16T19:40:18Z</time>
      </trkpt>
      <trkpt lat="68.64732" lon="27.51987">
        <ele>125.589355</ele>
        <time>2014-03-16T19:40:36Z</time>
      </trkpt>
      <trkpt lat="68.64732" lon="27.51998">
        <ele>126.550659</ele>
        <time>2014-03-16T19:40:53Z</time>
      </trkpt>
      <trkpt lat="68.64732" lon="27.51999">
        <ele>124.628052</ele>
        <time>2014-03-16T19:41:00Z</time>
      </trkpt>
      <trkpt lat="68.64732" lon="27.52">
        <ele>126.069946</ele>
        <time>2014-03-16T19:41:02Z</time>
      </trkpt>
      <trkpt lat="68.64739" lon="27.52023">
        <ele>126.069946</ele>
        <time>2014-03-16T19:41:22Z</time>
      </trkpt>
      <trkpt lat="68.6474" lon="27.52042">
        <ele>125.589355</ele>
        <time>2014-03-16T19:41:37Z</time>
      </trkpt>
      <trkpt lat="68.64744" lon="27.52051">
        <ele>125.108765</ele>
        <time>2014-03-16T19:41:54Z</time>
      </trkpt>
      <trkpt lat="68.64744" lon="27.52051">
        <ele>126.069946</ele>
        <time>2014-03-16T19:42:05Z</time>
      </trkpt>
      <trkpt lat="68.64745" lon="27.52049">
        <ele>122.705444</ele>
        <time>2014-03-16T19:42:09Z</time>
      </trkpt>
      <trkpt lat="68.64745" lon="27.5205">
        <ele>126.069946</ele>
        <time>2014-03-16T19:42:13Z</time>
      </trkpt>
      <trkpt lat="68.64745" lon="27.5205">
        <ele>125.589355</ele>
        <time>2014-03-16T19:42:14Z</time>
      </trkpt>
      <trkpt lat="68.64744" lon="27.52049">
        <ele>124.147339</ele>
        <time>2014-03-16T19:42:21Z</time>
      </trkpt>
      <trkpt lat="68.64746" lon="27.52049">
        <ele>127.511963</ele>
        <time>2014-03-16T19:42:39Z</time>
      </trkpt>
      <trkpt lat="68.64745" lon="27.52049">
        <ele>126.550659</ele>
        <time>2014-03-16T19:42:40Z</time>
      </trkpt>
      <trkpt lat="68.64745" lon="27.52049">
        <ele>121.26355</ele>
        <time>2014-03-16T19:42:44Z</time>
      </trkpt>
      <trkpt lat="68.64745" lon="27.52049">
        <ele>124.147339</ele>
        <time>2014-03-16T19:42:45Z</time>
      </trkpt>
      <trkpt lat="68.64745" lon="27.52049">
        <ele>125.108765</ele>
        <time>2014-03-16T19:42:47Z</time>
      </trkpt>
      <trkpt lat="68.64745" lon="27.52051">
        <ele>123.666748</ele>
        <time>2014-03-16T19:42:58Z</time>
      </trkpt>
      <trkpt lat="68.64747" lon="27.52052">
        <ele>128.954102</ele>
        <time>2014-03-16T19:43:12Z</time>
      </trkpt>
      <trkpt lat="68.64747" lon="27.52051">
        <ele>127.511963</ele>
        <time>2014-03-16T19:43:13Z</time>
      </trkpt>
      <trkpt lat="68.64747" lon="27.52051">
        <ele>125.589355</ele>
        <time>2014-03-16T19:43:15Z</time>
      </trkpt>
      <trkpt lat="68.64747" lon="27.52049">
        <ele>124.147339</ele>
        <time>2014-03-16T19:43:32Z</time>
      </trkpt>
      <trkpt lat="68.64747" lon="27.52049">
        <ele>125.589355</ele>
        <time>2014-03-16T19:43:48Z</time>
      </trkpt>
      <trkpt lat="68.64748" lon="27.52049">
        <ele>126.550659</ele>
        <time>2014-03-16T19:44:18Z</time>
      </trkpt>
      <trkpt lat="68.64746" lon="27.52054">
        <ele>125.589355</ele>
        <time>2014-03-16T19:44:47Z</time>
      </trkpt>
      <trkpt lat="68.64745" lon="27.52056">
        <ele>118.860107</ele>
        <time>2014-03-16T19:44:57Z</time>
      </trkpt>
      <trkpt lat="68.64745" lon="27.52055">
        <ele>128.954102</ele>
        <time>2014-03-16T19:44:59Z</time>
      </trkpt>
      <trkpt lat="68.64745" lon="27.52054">
        <ele>125.589355</ele>
        <time>2014-03-16T19:45:00Z</time>
      </trkpt>
      <trkpt lat="68.64747" lon="27.52052">
        <ele>125.108765</ele>
        <time>2014-03-16T19:45:13Z</time>
      </trkpt>
      <trkpt lat="68.64746" lon="27.5205">
        <ele>125.108765</ele>
        <time>2014-03-16T19:45:40Z</time>
      </trkpt>
      <trkpt lat="68.64746" lon="27.52051">
        <ele>124.628052</ele>
        <time>2014-03-16T19:45:58Z</time>
      </trkpt>
      <trkpt lat="68.64746" lon="27.52052">
        <ele>126.069946</ele>
        <time>2014-03-16T19:46:01Z</time>
      </trkpt>
      <trkpt lat="68.64746" lon="27.52049">
        <ele>127.511963</ele>
        <time>2014-03-16T19:46:16Z</time>
      </trkpt>
      <trkpt lat="68.64746" lon="27.5205">
        <ele>124.147339</ele>
        <time>2014-03-16T19:46:23Z</time>
      </trkpt>
      <trkpt lat="68.64745" lon="27.52053">
        <ele>125.108765</ele>
        <time>2014-03-16T19:46:31Z</time>
      </trkpt>
      <trkpt lat="68.64745" lon="27.52053">
        <ele>123.666748</ele>
        <time>2014-03-16T19:46:53Z</time>
      </trkpt>
      <trkpt lat="68.64745" lon="27.52053">
        <ele>126.550659</ele>
        <time>2014-03-16T19:46:55Z</time>
      </trkpt>
      <trkpt lat="68.64746" lon="27.52051">
        <ele>126.069946</ele>
        <time>2014-03-16T19:47:20Z</time>
      </trkpt>
      <trkpt lat="68.64746" lon="27.52052">
        <ele>126.550659</ele>
        <time>2014-03-16T19:47:24Z</time>
      </trkpt>
      <trkpt lat="68.64747" lon="27.52053">
        <ele>125.589355</ele>
        <time>2014-03-16T19:47:27Z</time>
      </trkpt>
      <trkpt lat="68.64746" lon="27.52049">
        <ele>126.550659</ele>
        <time>2014-03-16T19:47:40Z</time>
      </trkpt>
      <trkpt lat="68.64745" lon="27.52052">
        <ele>124.147339</ele>
        <time>2014-03-16T19:47:45Z</time>
      </trkpt>
      <trkpt lat="68.64745" lon="27.52052">
        <ele>127.031372</ele>
        <time>2014-03-16T19:47:52Z</time>
      </trkpt>
      <trkpt lat="68.64745" lon="27.5205">
        <ele>127.511963</ele>
        <time>2014-03-16T19:47:59Z</time>
      </trkpt>
      <trkpt lat="68.64745" lon="27.5205">
        <ele>124.147339</ele>
        <time>2014-03-16T19:48:01Z</time>
      </trkpt>
      <trkpt lat="68.64746" lon="27.5205">
        <ele>127.511963</ele>
        <time>2014-03-16T19:48:03Z</time>
      </trkpt>
      <trkpt lat="68.64746" lon="27.5205">
        <ele>127.511963</ele>
        <time>2014-03-16T19:48:04Z</time>
      </trkpt>
      <trkpt lat="68.64747" lon="27.5205">
        <ele>122.705444</ele>
        <time>2014-03-16T19:48:14Z</time>
      </trkpt>
      <trkpt lat="68.64747" lon="27.5205">
        <ele>126.069946</ele>
        <time>2014-03-16T19:48:15Z</time>
      </trkpt>
      <trkpt lat="68.64747" lon="27.5205">
        <ele>127.511963</ele>
        <time>2014-03-16T19:48:17Z</time>
      </trkpt>
      <trkpt lat="68.64747" lon="27.52052">
        <ele>127.031372</ele>
        <time>2014-03-16T19:48:29Z</time>
      </trkpt>
      <trkpt lat="68.64747" lon="27.52052">
        <ele>122.705444</ele>
        <time>2014-03-16T19:48:33Z</time>
      </trkpt>
      <trkpt lat="68.64747" lon="27.52052">
        <ele>127.992554</ele>
        <time>2014-03-16T19:48:35Z</time>
      </trkpt>
      <trkpt lat="68.64747" lon="27.52052">
        <ele>126.069946</ele>
        <time>2014-03-16T19:48:36Z</time>
      </trkpt>
      <trkpt lat="68.64746" lon="27.52055">
        <ele>127.031372</ele>
        <time>2014-03-16T19:49:07Z</time>
      </trkpt>
      <trkpt lat="68.64745" lon="27.5205">
        <ele>123.666748</ele>
        <time>2014-03-16T19:49:20Z</time>
      </trkpt>
      <trkpt lat="68.64745" lon="27.5205">
        <ele>127.031372</ele>
        <time>2014-03-16T19:49:21Z</time>
      </trkpt>
      <trkpt lat="68.64745" lon="27.5205">
        <ele>126.550659</ele>
        <time>2014-03-16T19:49:25Z</time>
      </trkpt>
      <trkpt lat="68.64745" lon="27.52049">
        <ele>122.705444</ele>
        <time>2014-03-16T19:49:32Z</time>
      </trkpt>
      <trkpt lat="68.64746" lon="27.52049">
        <ele>123.666748</ele>
        <time>2014-03-16T19:49:33Z</time>
      </trkpt>
      <trkpt lat="68.64746" lon="27.52049">
        <ele>127.992554</ele>
        <time>2014-03-16T19:49:40Z</time>
      </trkpt>
      <trkpt lat="68.64746" lon="27.52049">
        <ele>127.992554</ele>
        <time>2014-03-16T19:49:41Z</time>
      </trkpt>
      <trkpt lat="68.64746" lon="27.52048">
        <ele>124.628052</ele>
        <time>2014-03-16T19:49:44Z</time>
      </trkpt>
      <trkpt lat="68.64747" lon="27.52048">
        <ele>126.550659</ele>
        <time>2014-03-16T19:49:48Z</time>
      </trkpt>
      <trkpt lat="68.64747" lon="27.52049">
        <ele>124.628052</ele>
        <time>2014-03-16T19:49:56Z</time>
      </trkpt>
      <trkpt lat="68.64747" lon="27.5205">
        <ele>127.992554</ele>
        <time>2014-03-16T19:49:58Z</time>
      </trkpt>
      <trkpt lat="68.64747" lon="27.5205">
        <ele>124.147339</ele>
        <time>2014-03-16T19:50:00Z</time>
      </trkpt>
      <trkpt lat="68.64747" lon="27.5205">
        <ele>124.147339</ele>
        <time>2014-03-16T19:50:01Z</time>
      </trkpt>
      <trkpt lat="68.64747" lon="27.5205">
        <ele>126.069946</ele>
        <time>2014-03-16T19:50:32Z</time>
      </trkpt>
      <trkpt lat="68.64747" lon="27.52051">
        <ele>125.108765</ele>
        <time>2014-03-16T19:50:46Z</time>
      </trkpt>
      <trkpt lat="68.64746" lon="27.52051">
        <ele>126.069946</ele>
        <time>2014-03-16T19:50:50Z</time>
      </trkpt>
      <trkpt lat="68.64747" lon="27.52052">
        <ele>125.589355</ele>
        <time>2014-03-16T19:51:14Z</time>
      </trkpt>
      <trkpt lat="68.64747" lon="27.52051">
        <ele>126.069946</ele>
        <time>2014-03-16T19:51:34Z</time>
      </trkpt>
      <trkpt lat="68.64747" lon="27.52051">
        <ele>126.550659</ele>
        <time>2014-03-16T19:52:01Z</time>
      </trkpt>
      <trkpt lat="68.64747" lon="27.5205">
        <ele>126.069946</ele>
        <time>2014-03-16T19:52:36Z</time>
      </trkpt>
      <trkpt lat="68.64747" lon="27.5205">
        <ele>125.108765</ele>
        <time>2014-03-16T19:52:47Z</time>
      </trkpt>
      <trkpt lat="68.64747" lon="27.5205">
        <ele>126.550659</ele>
        <time>2014-03-16T19:53:02Z</time>
      </trkpt>
      <trkpt lat="68.64747" lon="27.5205">
        <ele>123.186157</ele>
        <time>2014-03-16T19:53:32Z</time>
      </trkpt>
      <trkpt lat="68.64747" lon="27.5205">
        <ele>127.511963</ele>
        <time>2014-03-16T19:53:34Z</time>
      </trkpt>
      <trkpt lat="68.64747" lon="27.5205">
        <ele>123.186157</ele>
        <time>2014-03-16T19:53:35Z</time>
      </trkpt>
      <trkpt lat="68.64747" lon="27.5205">
        <ele>127.992554</ele>
        <time>2014-03-16T19:53:36Z</time>
      </trkpt>
      <trkpt lat="68.64747" lon="27.52051">
        <ele>123.666748</ele>
        <time>2014-03-16T19:53:46Z</time>
      </trkpt>
      <trkpt lat="68.64747" lon="27.52051">
        <ele>127.031372</ele>
        <time>2014-03-16T19:53:48Z</time>
      </trkpt>
      <trkpt lat="68.64747" lon="27.52051">
        <ele>123.666748</ele>
        <time>2014-03-16T19:54:03Z</time>
      </trkpt>
      <trkpt lat="68.64747" lon="27.52051">
        <ele>127.511963</ele>
        <time>2014-03-16T19:54:05Z</time>
      </trkpt>
      <trkpt lat="68.64747" lon="27.52051">
        <ele>126.550659</ele>
        <time>2014-03-16T19:54:06Z</time>
      </trkpt>
      <trkpt lat="68.64748" lon="27.52053">
        <ele>125.108765</ele>
        <time>2014-03-16T19:54:26Z</time>
      </trkpt>
      <trkpt lat="68.64748" lon="27.52053">
        <ele>126.069946</ele>
        <time>2014-03-16T19:54:31Z</time>
      </trkpt>
      <trkpt lat="68.6475" lon="27.52059">
        <ele>127.031372</ele>
        <time>2014-03-16T19:54:47Z</time>
      </trkpt>
      <trkpt lat="68.6475" lon="27.5206">
        <ele>122.705444</ele>
        <time>2014-03-16T19:54:49Z</time>
      </trkpt>
      <trkpt lat="68.6475" lon="27.5206">
        <ele>124.628052</ele>
        <time>2014-03-16T19:54:50Z</time>
      </trkpt>
      <trkpt lat="68.6475" lon="27.52061">
        <ele>128.954102</ele>
        <time>2014-03-16T19:54:51Z</time>
      </trkpt>
      <trkpt lat="68.6475" lon="27.52062">
        <ele>127.511963</ele>
        <time>2014-03-16T19:54:52Z</time>
      </trkpt>
      <trkpt lat="68.64753" lon="27.5208">
        <ele>127.031372</ele>
        <time>2014-03-16T19:55:10Z</time>
      </trkpt>
      <trkpt lat="68.64758" lon="27.52095">
        <ele>126.069946</ele>
        <time>2014-03-16T19:55:27Z</time>
      </trkpt>
      <trkpt lat="68.64759" lon="27.52099">
        <ele>125.108765</ele>
        <time>2014-03-16T19:55:34Z</time>
      </trkpt>
      <trkpt lat="68.6476" lon="27.521">
        <ele>126.550659</ele>
        <time>2014-03-16T19:55:36Z</time>
      </trkpt>
      <trkpt lat="68.64768" lon="27.52102">
        <ele>126.069946</ele>
        <time>2014-03-16T19:55:53Z</time>
      </trkpt>
      <trkpt lat="68.64773" lon="27.52124">
        <ele>124.628052</ele>
        <time>2014-03-16T19:56:10Z</time>
      </trkpt>
      <trkpt lat="68.64774" lon="27.52127">
        <ele>126.550659</ele>
        <time>2014-03-16T19:56:13Z</time>
      </trkpt>
      <trkpt lat="68.64781" lon="27.52146">
        <ele>125.108765</ele>
        <time>2014-03-16T19:56:28Z</time>
      </trkpt>
      <trkpt lat="68.64789" lon="27.5218">
        <ele>126.069946</ele>
        <time>2014-03-16T19:56:44Z</time>
      </trkpt>
      <trkpt lat="68.64797" lon="27.522">
        <ele>125.589355</ele>
        <time>2014-03-16T19:57:00Z</time>
      </trkpt>
      <trkpt lat="68.64802" lon="27.52216">
        <ele>125.108765</ele>
        <time>2014-03-16T19:57:15Z</time>
      </trkpt>
      <trkpt lat="68.64809" lon="27.52228">
        <ele>124.628052</ele>
        <time>2014-03-16T19:57:29Z</time>
      </trkpt>
      <trkpt lat="68.64814" lon="27.5224">
        <ele>125.108765</ele>
        <time>2014-03-16T19:57:40Z</time>
      </trkpt>
      <trkpt lat="68.64822" lon="27.52276">
        <ele>126.069946</ele>
        <time>2014-03-16T19:57:59Z</time>
      </trkpt>
      <trkpt lat="68.64831" lon="27.52286">
        <ele>124.147339</ele>
        <time>2014-03-16T19:58:15Z</time>
      </trkpt>
      <trkpt lat="68.64833" lon="27.52287">
        <ele>125.589355</ele>
        <time>2014-03-16T19:58:18Z</time>
      </trkpt>
      <trkpt lat="68.64839" lon="27.52299">
        <ele>127.031372</ele>
        <time>2014-03-16T19:58:34Z</time>
      </trkpt>
      <trkpt lat="68.64841" lon="27.52324">
        <ele>126.069946</ele>
        <time>2014-03-16T19:58:49Z</time>
      </trkpt>
      <trkpt lat="68.64844" lon="27.52333">
        <ele>125.589355</ele>
        <time>2014-03-16T19:58:55Z</time>
      </trkpt>
      <trkpt lat="68.64854" lon="27.52365">
        <ele>126.069946</ele>
        <time>2014-03-16T19:59:15Z</time>
      </trkpt>
      <trkpt lat="68.64858" lon="27.52389">
        <ele>125.108765</ele>
        <time>2014-03-16T19:59:30Z</time>
      </trkpt>
      <trkpt lat="68.64864" lon="27.52416">
        <ele>126.550659</ele>
        <time>2014-03-16T19:59:46Z</time>
      </trkpt>
      <trkpt lat="68.6487" lon="27.52436">
        <ele>126.550659</ele>
        <time>2014-03-16T20:00:01Z</time>
      </trkpt>
      <trkpt lat="68.64875" lon="27.52459">
        <ele>126.550659</ele>
        <time>2014-03-16T20:00:15Z</time>
      </trkpt>
      <trkpt lat="68.64884" lon="27.52485">
        <ele>127.511963</ele>
        <time>2014-03-16T20:00:32Z</time>
      </trkpt>
      <trkpt lat="68.64889" lon="27.52496">
        <ele>126.069946</ele>
        <time>2014-03-16T20:00:39Z</time>
      </trkpt>
      <trkpt lat="68.64896" lon="27.52503">
        <ele>125.589355</ele>
        <time>2014-03-16T20:00:52Z</time>
      </trkpt>
      <trkpt lat="68.64903" lon="27.52512">
        <ele>126.069946</ele>
        <time>2014-03-16T20:01:10Z</time>
      </trkpt>
      <trkpt lat="68.64914" lon="27.52503">
        <ele>127.031372</ele>
        <time>2014-03-16T20:01:27Z</time>
      </trkpt>
      <trkpt lat="68.64916" lon="27.52504">
        <ele>122.705444</ele>
        <time>2014-03-16T20:01:32Z</time>
      </trkpt>
      <trkpt lat="68.64916" lon="27.52504">
        <ele>126.550659</ele>
        <time>2014-03-16T20:01:33Z</time>
      </trkpt>
      <trkpt lat="68.64916" lon="27.52506">
        <ele>127.031372</ele>
        <time>2014-03-16T20:01:45Z</time>
      </trkpt>
      <trkpt lat="68.64916" lon="27.52506">
        <ele>123.186157</ele>
        <time>2014-03-16T20:01:51Z</time>
      </trkpt>
      <trkpt lat="68.64916" lon="27.52505">
        <ele>123.666748</ele>
        <time>2014-03-16T20:01:52Z</time>
      </trkpt>
      <trkpt lat="68.64916" lon="27.52505">
        <ele>127.511963</ele>
        <time>2014-03-16T20:01:55Z</time>
      </trkpt>
      <trkpt lat="68.64917" lon="27.52505">
        <ele>123.666748</ele>
        <time>2014-03-16T20:02:04Z</time>
      </trkpt>
      <trkpt lat="68.64917" lon="27.52505">
        <ele>124.628052</ele>
        <time>2014-03-16T20:02:05Z</time>
      </trkpt>
      <trkpt lat="68.64917" lon="27.52505">
        <ele>127.992554</ele>
        <time>2014-03-16T20:02:07Z</time>
      </trkpt>
      <trkpt lat="68.64917" lon="27.52505">
        <ele>124.147339</ele>
        <time>2014-03-16T20:02:13Z</time>
      </trkpt>
      <trkpt lat="68.64917" lon="27.52505">
        <ele>126.550659</ele>
        <time>2014-03-16T20:02:16Z</time>
      </trkpt>
      <trkpt lat="68.64917" lon="27.52505">
        <ele>124.628052</ele>
        <time>2014-03-16T20:02:19Z</time>
      </trkpt>
      <trkpt lat="68.64917" lon="27.52505">
        <ele>127.031372</ele>
        <time>2014-03-16T20:02:21Z</time>
      </trkpt>
      <trkpt lat="68.64918" lon="27.52506">
        <ele>123.666748</ele>
        <time>2014-03-16T20:02:30Z</time>
      </trkpt>
      <trkpt lat="68.64918" lon="27.52506">
        <ele>126.550659</ele>
        <time>2014-03-16T20:02:31Z</time>
      </trkpt>
      <trkpt lat="68.64918" lon="27.52506">
        <ele>127.511963</ele>
        <time>2014-03-16T20:02:33Z</time>
      </trkpt>
      <trkpt lat="68.64918" lon="27.52507">
        <ele>123.666748</ele>
        <time>2014-03-16T20:02:38Z</time>
      </trkpt>
      <trkpt lat="68.64918" lon="27.52507">
        <ele>124.628052</ele>
        <time>2014-03-16T20:02:39Z</time>
      </trkpt>
      <trkpt lat="68.64918" lon="27.52506">
        <ele>128.473389</ele>
        <time>2014-03-16T20:02:41Z</time>
      </trkpt>
      <trkpt lat="68.64918" lon="27.52506">
        <ele>127.992554</ele>
        <time>2014-03-16T20:02:42Z</time>
      </trkpt>
      <trkpt lat="68.64918" lon="27.52506">
        <ele>124.628052</ele>
        <time>2014-03-16T20:02:49Z</time>
      </trkpt>
      <trkpt lat="68.64918" lon="27.52506">
        <ele>127.992554</ele>
        <time>2014-03-16T20:02:53Z</time>
      </trkpt>
      <trkpt lat="68.64918" lon="27.52506">
        <ele>124.628052</ele>
        <time>2014-03-16T20:02:56Z</time>
      </trkpt>
      <trkpt lat="68.64918" lon="27.52506">
        <ele>124.628052</ele>
        <time>2014-03-16T20:02:57Z</time>
      </trkpt>
      <trkpt lat="68.64919" lon="27.52507">
        <ele>127.992554</ele>
        <time>2014-03-16T20:02:59Z</time>
      </trkpt>
      <trkpt lat="68.64919" lon="27.52506">
        <ele>127.992554</ele>
        <time>2014-03-16T20:03:09Z</time>
      </trkpt>
      <trkpt lat="68.64918" lon="27.52506">
        <ele>128.473389</ele>
        <time>2014-03-16T20:03:24Z</time>
      </trkpt>
      <trkpt lat="68.64918" lon="27.52506">
        <ele>123.666748</ele>
        <time>2014-03-16T20:03:25Z</time>
      </trkpt>
      <trkpt lat="68.64918" lon="27.52506">
        <ele>128.954102</ele>
        <time>2014-03-16T20:03:26Z</time>
      </trkpt>
      <trkpt lat="68.64918" lon="27.52506">
        <ele>125.589355</ele>
        <time>2014-03-16T20:03:28Z</time>
      </trkpt>
      <trkpt lat="68.64918" lon="27.52506">
        <ele>128.954102</ele>
        <time>2014-03-16T20:03:34Z</time>
      </trkpt>
      <trkpt lat="68.64918" lon="27.52507">
        <ele>129.434692</ele>
        <time>2014-03-16T20:03:35Z</time>
      </trkpt>
      <trkpt lat="68.64918" lon="27.52507">
        <ele>127.031372</ele>
        <time>2014-03-16T20:03:45Z</time>
      </trkpt>
      <trkpt lat="68.64919" lon="27.52507">
        <ele>128.954102</ele>
        <time>2014-03-16T20:03:48Z</time>
      </trkpt>
      <trkpt lat="68.64918" lon="27.52507">
        <ele>126.550659</ele>
        <time>2014-03-16T20:03:51Z</time>
      </trkpt>
      <trkpt lat="68.64918" lon="27.52506">
        <ele>126.550659</ele>
        <time>2014-03-16T20:03:59Z</time>
      </trkpt>
      <trkpt lat="68.64918" lon="27.52506">
        <ele>127.992554</ele>
        <time>2014-03-16T20:04:01Z</time>
      </trkpt>
      <trkpt lat="68.64917" lon="27.52506">
        <ele>126.069946</ele>
        <time>2014-03-16T20:04:15Z</time>
      </trkpt>
      <trkpt lat="68.64917" lon="27.52505">
        <ele>124.628052</ele>
        <time>2014-03-16T20:04:19Z</time>
      </trkpt>
      <trkpt lat="68.64917" lon="27.52505">
        <ele>128.473389</ele>
        <time>2014-03-16T20:04:20Z</time>
      </trkpt>
      <trkpt lat="68.64916" lon="27.52505">
        <ele>127.031372</ele>
        <time>2014-03-16T20:04:24Z</time>
      </trkpt>
      <trkpt lat="68.64918" lon="27.52506">
        <ele>128.954102</ele>
        <time>2014-03-16T20:04:49Z</time>
      </trkpt>
      <trkpt lat="68.64918" lon="27.52506">
        <ele>125.589355</ele>
        <time>2014-03-16T20:04:56Z</time>
      </trkpt>
      <trkpt lat="68.64918" lon="27.52506">
        <ele>126.069946</ele>
        <time>2014-03-16T20:04:57Z</time>
      </trkpt>
      <trkpt lat="68.64918" lon="27.52506">
        <ele>128.473389</ele>
        <time>2014-03-16T20:04:59Z</time>
      </trkpt>
      <trkpt lat="68.64917" lon="27.52509">
        <ele>125.108765</ele>
        <time>2014-03-16T20:05:24Z</time>
      </trkpt>
      <trkpt lat="68.64917" lon="27.52509">
        <ele>125.589355</ele>
        <time>2014-03-16T20:05:25Z</time>
      </trkpt>
      <trkpt lat="68.64917" lon="27.52508">
        <ele>129.915283</ele>
        <time>2014-03-16T20:05:27Z</time>
      </trkpt>
      <trkpt lat="68.64917" lon="27.52508">
        <ele>127.992554</ele>
        <time>2014-03-16T20:05:28Z</time>
      </trkpt>
      <trkpt lat="68.64917" lon="27.52507">
        <ele>126.069946</ele>
        <time>2014-03-16T20:05:30Z</time>
      </trkpt>
      <trkpt lat="68.64917" lon="27.52507">
        <ele>127.511963</ele>
        <time>2014-03-16T20:05:37Z</time>
      </trkpt>
      <trkpt lat="68.64918" lon="27.525">
        <ele>127.031372</ele>
        <time>2014-03-16T20:05:56Z</time>
      </trkpt>
      <trkpt lat="68.6492" lon="27.52499">
        <ele>126.550659</ele>
        <time>2014-03-16T20:06:04Z</time>
      </trkpt>
      <trkpt lat="68.64921" lon="27.52497">
        <ele>126.550659</ele>
        <time>2014-03-16T20:06:21Z</time>
      </trkpt>
      <trkpt lat="68.64921" lon="27.52498">
        <ele>127.031372</ele>
        <time>2014-03-16T20:06:54Z</time>
      </trkpt>
      <trkpt lat="68.64922" lon="27.52501">
        <ele>128.473389</ele>
        <time>2014-03-16T20:07:17Z</time>
      </trkpt>
      <trkpt lat="68.64921" lon="27.52508">
        <ele>126.550659</ele>
        <time>2014-03-16T20:07:37Z</time>
      </trkpt>
      <trkpt lat="68.64923" lon="27.52506">
        <ele>127.031372</ele>
        <time>2014-03-16T20:08:08Z</time>
      </trkpt>
      <trkpt lat="68.64924" lon="27.52508">
        <ele>123.666748</ele>
        <time>2014-03-16T20:08:29Z</time>
      </trkpt>
      <trkpt lat="68.64924" lon="27.52508">
        <ele>126.069946</ele>
        <time>2014-03-16T20:08:30Z</time>
      </trkpt>
      <trkpt lat="68.64924" lon="27.52508">
        <ele>127.031372</ele>
        <time>2014-03-16T20:08:32Z</time>
      </trkpt>
      <trkpt lat="68.64922" lon="27.52509">
        <ele>127.992554</ele>
        <time>2014-03-16T20:09:00Z</time>
      </trkpt>
      <trkpt lat="68.64924" lon="27.5251">
        <ele>127.511963</ele>
        <time>2014-03-16T20:09:23Z</time>
      </trkpt>
      <trkpt lat="68.64922" lon="27.52504">
        <ele>127.992554</ele>
        <time>2014-03-16T20:09:45Z</time>
      </trkpt>
      <trkpt lat="68.6492" lon="27.52497">
        <ele>127.511963</ele>
        <time>2014-03-16T20:10:03Z</time>
      </trkpt>
      <trkpt lat="68.6492" lon="27.52483">
        <ele>127.511963</ele>
        <time>2014-03-16T20:10:20Z</time>
      </trkpt>
      <trkpt lat="68.6492" lon="27.52484">
        <ele>126.550659</ele>
        <time>2014-03-16T20:10:27Z</time>
      </trkpt>
      <trkpt lat="68.6492" lon="27.52484">
        <ele>127.992554</ele>
        <time>2014-03-16T20:10:29Z</time>
      </trkpt>
      <trkpt lat="68.64915" lon="27.52491">
        <ele>128.473389</ele>
        <time>2014-03-16T20:11:05Z</time>
      </trkpt>
      <trkpt lat="68.64916" lon="27.52493">
        <ele>127.992554</ele>
        <time>2014-03-16T20:11:38Z</time>
      </trkpt>
      <trkpt lat="68.64916" lon="27.52501">
        <ele>126.550659</ele>
        <time>2014-03-16T20:11:59Z</time>
      </trkpt>
      <trkpt lat="68.64916" lon="27.52503">
        <ele>127.511963</ele>
        <time>2014-03-16T20:12:06Z</time>
      </trkpt>
      <trkpt lat="68.64921" lon="27.52516">
        <ele>128.473389</ele>
        <time>2014-03-16T20:12:24Z</time>
      </trkpt>
      <trkpt lat="68.6493" lon="27.52521">
        <ele>127.511963</ele>
        <time>2014-03-16T20:12:41Z</time>
      </trkpt>
      <trkpt lat="68.64941" lon="27.52542">
        <ele>127.511963</ele>
        <time>2014-03-16T20:13:00Z</time>
      </trkpt>
      <trkpt lat="68.64948" lon="27.52584">
        <ele>127.031372</ele>
        <time>2014-03-16T20:13:20Z</time>
      </trkpt>
      <trkpt lat="68.64949" lon="27.52602">
        <ele>127.031372</ele>
        <time>2014-03-16T20:13:26Z</time>
      </trkpt>
      <trkpt lat="68.64953" lon="27.52642">
        <ele>127.031372</ele>
        <time>2014-03-16T20:13:45Z</time>
      </trkpt>
      <trkpt lat="68.64958" lon="27.52674">
        <ele>126.550659</ele>
        <time>2014-03-16T20:14:03Z</time>
      </trkpt>
      <trkpt lat="68.64965" lon="27.52698">
        <ele>126.069946</ele>
        <time>2014-03-16T20:14:20Z</time>
      </trkpt>
      <trkpt lat="68.64972" lon="27.5271">
        <ele>126.069946</ele>
        <time>2014-03-16T20:14:37Z</time>
      </trkpt>
      <trkpt lat="68.6498" lon="27.52746">
        <ele>126.069946</ele>
        <time>2014-03-16T20:14:56Z</time>
      </trkpt>
      <trkpt lat="68.6498" lon="27.52747">
        <ele>122.705444</ele>
        <time>2014-03-16T20:14:57Z</time>
      </trkpt>
      <trkpt lat="68.6498" lon="27.52749">
        <ele>126.550659</ele>
        <time>2014-03-16T20:14:58Z</time>
      </trkpt>
      <trkpt lat="68.64985" lon="27.52783">
        <ele>126.069946</ele>
        <time>2014-03-16T20:15:16Z</time>
      </trkpt>
      <trkpt lat="68.64992" lon="27.52809">
        <ele>125.108765</ele>
        <time>2014-03-16T20:15:34Z</time>
      </trkpt>
      <trkpt lat="68.64993" lon="27.52811">
        <ele>127.031372</ele>
        <time>2014-03-16T20:15:37Z</time>
      </trkpt>
      <trkpt lat="68.64995" lon="27.52822">
        <ele>122.224731</ele>
        <time>2014-03-16T20:15:51Z</time>
      </trkpt>
      <trkpt lat="68.64996" lon="27.52823">
        <ele>126.069946</ele>
        <time>2014-03-16T20:15:52Z</time>
      </trkpt>
      <trkpt lat="68.64997" lon="27.52837">
        <ele>122.224731</ele>
        <time>2014-03-16T20:16:05Z</time>
      </trkpt>
      <trkpt lat="68.64997" lon="27.5284">
        <ele>127.031372</ele>
        <time>2014-03-16T20:16:07Z</time>
      </trkpt>
      <trkpt lat="68.64998" lon="27.52842">
        <ele>126.550659</ele>
        <time>2014-03-16T20:16:08Z</time>
      </trkpt>
      <trkpt lat="68.65002" lon="27.52851">
        <ele>125.589355</ele>
        <time>2014-03-16T20:16:21Z</time>
      </trkpt>
      <trkpt lat="68.65001" lon="27.52895">
        <ele>126.550659</ele>
        <time>2014-03-16T20:16:38Z</time>
      </trkpt>
      <trkpt lat="68.65002" lon="27.52916">
        <ele>124.628052</ele>
        <time>2014-03-16T20:16:46Z</time>
      </trkpt>
      <trkpt lat="68.65013" lon="27.52966">
        <ele>126.550659</ele>
        <time>2014-03-16T20:17:07Z</time>
      </trkpt>
      <trkpt lat="68.65022" lon="27.52993">
        <ele>127.031372</ele>
        <time>2014-03-16T20:17:21Z</time>
      </trkpt>
      <trkpt lat="68.65029" lon="27.53025">
        <ele>126.550659</ele>
        <time>2014-03-16T20:17:36Z</time>
      </trkpt>
      <trkpt lat="68.65031" lon="27.53041">
        <ele>126.550659</ele>
        <time>2014-03-16T20:17:41Z</time>
      </trkpt>
      <trkpt lat="68.65035" lon="27.53058">
        <ele>126.069946</ele>
        <time>2014-03-16T20:17:49Z</time>
      </trkpt>
      <trkpt lat="68.65044" lon="27.53078">
        <ele>127.031372</ele>
        <time>2014-03-16T20:18:01Z</time>
      </trkpt>
      <trkpt lat="68.65052" lon="27.53123">
        <ele>127.511963</ele>
        <time>2014-03-16T20:18:20Z</time>
      </trkpt>
      <trkpt lat="68.6505" lon="27.53148">
        <ele>127.511963</ele>
        <time>2014-03-16T20:18:37Z</time>
      </trkpt>
      <trkpt lat="68.65042" lon="27.53185">
        <ele>127.511963</ele>
        <time>2014-03-16T20:18:55Z</time>
      </trkpt>
      <trkpt lat="68.65041" lon="27.53225">
        <ele>127.992554</ele>
        <time>2014-03-16T20:19:11Z</time>
      </trkpt>
      <trkpt lat="68.65039" lon="27.53269">
        <ele>126.069946</ele>
        <time>2014-03-16T20:19:28Z</time>
      </trkpt>
      <trkpt lat="68.65038" lon="27.53281">
        <ele>126.069946</ele>
        <time>2014-03-16T20:19:32Z</time>
      </trkpt>
      <trkpt lat="68.65037" lon="27.53294">
        <ele>126.550659</ele>
        <time>2014-03-16T20:19:37Z</time>
      </trkpt>
      <trkpt lat="68.65035" lon="27.5334">
        <ele>127.031372</ele>
        <time>2014-03-16T20:19:55Z</time>
      </trkpt>
      <trkpt lat="68.65036" lon="27.53363">
        <ele>127.511963</ele>
        <time>2014-03-16T20:20:05Z</time>
      </trkpt>
      <trkpt lat="68.65036" lon="27.5342">
        <ele>127.992554</ele>
        <time>2014-03-16T20:20:24Z</time>
      </trkpt>
      <trkpt lat="68.65039" lon="27.53436">
        <ele>128.954102</ele>
        <time>2014-03-16T20:20:34Z</time>
      </trkpt>
      <trkpt lat="68.65044" lon="27.53437">
        <ele>125.108765</ele>
        <time>2014-03-16T20:20:45Z</time>
      </trkpt>
      <trkpt lat="68.65044" lon="27.53437">
        <ele>129.434692</ele>
        <time>2014-03-16T20:20:48Z</time>
      </trkpt>
      <trkpt lat="68.65044" lon="27.53439">
        <ele>125.589355</ele>
        <time>2014-03-16T20:20:53Z</time>
      </trkpt>
      <trkpt lat="68.65044" lon="27.53439">
        <ele>126.069946</ele>
        <time>2014-03-16T20:20:54Z</time>
      </trkpt>
      <trkpt lat="68.65045" lon="27.5344">
        <ele>123.186157</ele>
        <time>2014-03-16T20:21:06Z</time>
      </trkpt>
      <trkpt lat="68.65044" lon="27.53439">
        <ele>126.069946</ele>
        <time>2014-03-16T20:21:08Z</time>
      </trkpt>
      <trkpt lat="68.65043" lon="27.53437">
        <ele>130.876709</ele>
        <time>2014-03-16T20:21:16Z</time>
      </trkpt>
      <trkpt lat="68.65043" lon="27.53437">
        <ele>127.511963</ele>
        <time>2014-03-16T20:21:17Z</time>
      </trkpt>
      <trkpt lat="68.6505" lon="27.53444">
        <ele>127.031372</ele>
        <time>2014-03-16T20:21:37Z</time>
      </trkpt>
      <trkpt lat="68.65051" lon="27.53445">
        <ele>125.108765</ele>
        <time>2014-03-16T20:21:41Z</time>
      </trkpt>
      <trkpt lat="68.65045" lon="27.53454">
        <ele>125.589355</ele>
        <time>2014-03-16T20:22:03Z</time>
      </trkpt>
      <trkpt lat="68.65042" lon="27.53462">
        <ele>124.147339</ele>
        <time>2014-03-16T20:22:11Z</time>
      </trkpt>
      <trkpt lat="68.65042" lon="27.53462">
        <ele>128.473389</ele>
        <time>2014-03-16T20:22:13Z</time>
      </trkpt>
      <trkpt lat="68.65041" lon="27.53463">
        <ele>124.628052</ele>
        <time>2014-03-16T20:22:14Z</time>
      </trkpt>
      <trkpt lat="68.65041" lon="27.53464">
        <ele>127.031372</ele>
        <time>2014-03-16T20:22:17Z</time>
      </trkpt>
      <trkpt lat="68.65042" lon="27.53464">
        <ele>124.147339</ele>
        <time>2014-03-16T20:22:19Z</time>
      </trkpt>
      <trkpt lat="68.65034" lon="27.53486">
        <ele>126.069946</ele>
        <time>2014-03-16T20:22:34Z</time>
      </trkpt>
      <trkpt lat="68.65035" lon="27.53525">
        <ele>125.108765</ele>
        <time>2014-03-16T20:22:50Z</time>
      </trkpt>
      <trkpt lat="68.65033" lon="27.53546">
        <ele>126.069946</ele>
        <time>2014-03-16T20:22:59Z</time>
      </trkpt>
      <trkpt lat="68.65034" lon="27.53592">
        <ele>124.628052</ele>
        <time>2014-03-16T20:23:15Z</time>
      </trkpt>
      <trkpt lat="68.65035" lon="27.53625">
        <ele>124.628052</ele>
        <time>2014-03-16T20:23:23Z</time>
      </trkpt>
      <trkpt lat="68.65038" lon="27.53651">
        <ele>125.108765</ele>
        <time>2014-03-16T20:23:32Z</time>
      </trkpt>
      <trkpt lat="68.65046" lon="27.53692">
        <ele>124.147339</ele>
        <time>2014-03-16T20:23:50Z</time>
      </trkpt>
      <trkpt lat="68.65049" lon="27.53721">
        <ele>124.628052</ele>
        <time>2014-03-16T20:24:01Z</time>
      </trkpt>
      <trkpt lat="68.65043" lon="27.53739">
        <ele>123.186157</ele>
        <time>2014-03-16T20:24:13Z</time>
      </trkpt>
      <trkpt lat="68.65043" lon="27.5374">
        <ele>126.550659</ele>
        <time>2014-03-16T20:24:14Z</time>
      </trkpt>
      <trkpt lat="68.65042" lon="27.53741">
        <ele>125.589355</ele>
        <time>2014-03-16T20:24:15Z</time>
      </trkpt>
      <trkpt lat="68.65038" lon="27.53747">
        <ele>124.147339</ele>
        <time>2014-03-16T20:24:20Z</time>
      </trkpt>
      <trkpt lat="68.65031" lon="27.53757">
        <ele>125.108765</ele>
        <time>2014-03-16T20:24:28Z</time>
      </trkpt>
      <trkpt lat="68.65014" lon="27.5379">
        <ele>123.666748</ele>
        <time>2014-03-16T20:24:49Z</time>
      </trkpt>
      <trkpt lat="68.64996" lon="27.5383">
        <ele>124.628052</ele>
        <time>2014-03-16T20:25:11Z</time>
      </trkpt>
      <trkpt lat="68.64982" lon="27.5386">
        <ele>124.628052</ele>
        <time>2014-03-16T20:25:30Z</time>
      </trkpt>
      <trkpt lat="68.64973" lon="27.53875">
        <ele>125.108765</ele>
        <time>2014-03-16T20:25:40Z</time>
      </trkpt>
      <trkpt lat="68.64956" lon="27.53916">
        <ele>124.628052</ele>
        <time>2014-03-16T20:26:03Z</time>
      </trkpt>
      <trkpt lat="68.6494" lon="27.53963">
        <ele>123.666748</ele>
        <time>2014-03-16T20:26:25Z</time>
      </trkpt>
      <trkpt lat="68.64932" lon="27.54019">
        <ele>123.186157</ele>
        <time>2014-03-16T20:26:45Z</time>
      </trkpt>
      <trkpt lat="68.64929" lon="27.54071">
        <ele>123.186157</ele>
        <time>2014-03-16T20:27:03Z</time>
      </trkpt>
      <trkpt lat="68.6493" lon="27.54121">
        <ele>125.589355</ele>
        <time>2014-03-16T20:27:21Z</time>
      </trkpt>
      <trkpt lat="68.64933" lon="27.54144">
        <ele>129.434692</ele>
        <time>2014-03-16T20:27:31Z</time>
      </trkpt>
      <trkpt lat="68.64934" lon="27.54145">
        <ele>129.434692</ele>
        <time>2014-03-16T20:27:32Z</time>
      </trkpt>
      <trkpt lat="68.64945" lon="27.54174">
        <ele>129.434692</ele>
        <time>2014-03-16T20:27:48Z</time>
      </trkpt>
      <trkpt lat="68.64952" lon="27.54184">
        <ele>126.550659</ele>
        <time>2014-03-16T20:27:56Z</time>
      </trkpt>
      <trkpt lat="68.64953" lon="27.54185">
        <ele>122.705444</ele>
        <time>2014-03-16T20:27:57Z</time>
      </trkpt>
      <trkpt lat="68.64954" lon="27.54187">
        <ele>129.915283</ele>
        <time>2014-03-16T20:27:58Z</time>
      </trkpt>
      <trkpt lat="68.64955" lon="27.54189">
        <ele>133.279907</ele>
        <time>2014-03-16T20:28:00Z</time>
      </trkpt>
      <trkpt lat="68.64956" lon="27.5419">
        <ele>131.3573</ele>
        <time>2014-03-16T20:28:01Z</time>
      </trkpt>
      <trkpt lat="68.6496" lon="27.54194">
        <ele>129.434692</ele>
        <time>2014-03-16T20:28:05Z</time>
      </trkpt>
      <trkpt lat="68.64962" lon="27.54198">
        <ele>132.799316</ele>
        <time>2014-03-16T20:28:09Z</time>
      </trkpt>
      <trkpt lat="68.64961" lon="27.542">
        <ele>129.915283</ele>
        <time>2014-03-16T20:28:11Z</time>
      </trkpt>
      <trkpt lat="68.64959" lon="27.54201">
        <ele>127.992554</ele>
        <time>2014-03-16T20:28:13Z</time>
      </trkpt>
      <trkpt lat="68.64957" lon="27.54203">
        <ele>131.837891</ele>
        <time>2014-03-16T20:28:18Z</time>
      </trkpt>
      <trkpt lat="68.64958" lon="27.54203">
        <ele>130.395996</ele>
        <time>2014-03-16T20:28:19Z</time>
      </trkpt>
      <trkpt lat="68.64958" lon="27.54202">
        <ele>131.837891</ele>
        <time>2014-03-16T20:28:22Z</time>
      </trkpt>
      <trkpt lat="68.64956" lon="27.54215">
        <ele>130.395996</ele>
        <time>2014-03-16T20:28:32Z</time>
      </trkpt>
      <trkpt lat="68.64959" lon="27.5423">
        <ele>130.395996</ele>
        <time>2014-03-16T20:28:46Z</time>
      </trkpt>
    </trkseg>
  </trk>
</gpx>